Terminal Aerodrome Forecast
Issued by NWS Shreveport, LA

Home | Current Version | Previous Version | Text Only | Print | Product List | Glossary On
Versions: 1 2 3 4 5 6 7 8 9 10 11 12 13 14 15 16 17 18
000
FTUS44 KSHV 252300
TAFSHV
TAF
KSHV 252339Z 2600/2624 27003KT P6SM FEW060 SCT280
     FM260300 17004KT P6SM SKC
     FM261100 20004KT 6SM BR SKC
     FM261400 21007KT P6SM FEW250=

USA.gov is the U.S. government's official web portal to all federal, state and local government web resources and services.